sensor_id;sensor_type;location;lat;lon;timestamp;temperature;humidity
27114;DHT22;14648;49.730;8.614;2024-03-23T01:12:51;14.60;48.20
27114;DHT22;14648;49.730;8.614;2024-03-23T01:15:22;14.60;48.30
27114;DHT22;14648;49.730;8.614;2024-03-23T01:20:48;14.60;48.20
27114;DHT22;14648;49.730;8.614;2024-03-23T02:01:27;14.50;49.00
27114;DHT22;14648;49.730;8.614;2024-03-23T02:03:53;14.40;49.00
27114;DHT22;14648;49.730;8.614;2024-03-23T02:06:19;14.30;49.00
27114;DHT22;14648;49.730;8.614;2024-03-23T02:08:45;14.30;49.20
27114;DHT22;14648;49.730;8.614;2024-03-23T02:11:10;14.20;49.10
27114;DHT22;14648;49.730;8.614;2024-03-23T02:13:36;14.20;49.20
27114;DHT22;14648;49.730;8.614;2024-03-23T02:16:02;14.10;49.30
27114;DHT22;14648;49.730;8.614;2024-03-23T02:18:28;14.10;49.40
27114;DHT22;14648;49.730;8.614;2024-03-23T02:20:54;14.00;49.40
27114;DHT22;14648;49.730;8.614;2024-03-23T02:23:19;14.00;49.40
27114;DHT22;14648;49.730;8.614;2024-03-23T02:25:45;13.90;49.50
27114;DHT22;14648;49.730;8.614;2024-03-23T02:28:11;13.90;49.50
27114;DHT22;14648;49.730;8.614;2024-03-23T02:30:37;13.90;49.60
27114;DHT22;14648;49.730;8.614;2024-03-23T02:33:04;13.80;49.50
27114;DHT22;14648;49.730;8.614;2024-03-23T02:35:30;13.80;49.50
27114;DHT22;14648;49.730;8.614;2024-03-23T02:37:56;13.80;49.50
27114;DHT22;14648;49.730;8.614;2024-03-23T02:40:23;13.80;49.60
27114;DHT22;14648;49.730;8.614;2024-03-23T02:42:49;13.70;49.60
27114;DHT22;14648;49.730;8.614;2024-03-23T02:45:15;13.70;49.70
27114;DHT22;14648;49.730;8.614;2024-03-23T02:47:41;13.80;49.70
27114;DHT22;14648;49.730;8.614;2024-03-23T02:50:07;13.70;49.80
27114;DHT22;14648;49.730;8.614;2024-03-23T02:52:34;13.70;49.90
27114;DHT22;14648;49.730;8.614;2024-03-23T02:55:01;13.70;49.90
27114;DHT22;14648;49.730;8.614;2024-03-23T02:57:30;13.60;49.90
27114;DHT22;14648;49.730;8.614;2024-03-23T02:59:56;13.60;50.00
27114;DHT22;14648;49.730;8.614;2024-03-23T03:02:22;13.60;50.10
27114;DHT22;14648;49.730;8.614;2024-03-23T03:04:47;13.50;50.20
27114;DHT22;14648;49.730;8.614;2024-03-23T03:12:24;13.50;50.40
27114;DHT22;14648;49.730;8.614;2024-03-23T03:15:03;13.50;50.50
27114;DHT22;14648;49.730;8.614;2024-03-23T03:17:33;13.40;50.40
27114;DHT22;14648;49.730;8.614;2024-03-23T03:19:59;13.40;50.50
27114;DHT22;14648;49.730;8.614;2024-03-23T03:22:25;13.30;50.60
27114;DHT22;14648;49.730;8.614;2024-03-23T03:24:55;13.30;50.60
27114;DHT22;14648;49.730;8.614;2024-03-23T03:27:33;13.30;50.70
27114;DHT22;14648;49.730;8.614;2024-03-23T03:30:00;13.30;50.80
27114;DHT22;14648;49.730;8.614;2024-03-23T03:32:35;13.30;51.50
27114;DHT22;14648;49.730;8.614;2024-03-23T03:40:39;13.30;50.90
27114;DHT22;14648;49.730;8.614;2024-03-23T04:03:44;13.30;51.10
27114;DHT22;14648;49.730;8.614;2024-03-23T04:12:34;13.20;51.00
27114;DHT22;14648;49.730;8.614;2024-03-23T04:15:39;13.20;51.00
27114;DHT22;14648;49.730;8.614;2024-03-23T04:53:44;12.90;51.50
27114;DHT22;14648;49.730;8.614;2024-03-23T04:56:10;12.90;51.60
27114;DHT22;14648;49.730;8.614;2024-03-23T04:58:36;12.70;51.60
27114;DHT22;14648;49.730;8.614;2024-03-23T05:01:02;12.50;51.80
27114;DHT22;14648;49.730;8.614;2024-03-23T05:03:28;12.20;52.10
27114;DHT22;14648;49.730;8.614;2024-03-23T05:05:54;12.00;52.30
27114;DHT22;14648;49.730;8.614;2024-03-23T05:08:20;11.80;52.60
27114;DHT22;14648;49.730;8.614;2024-03-23T05:10:45;11.70;52.80
27114;DHT22;14648;49.730;8.614;2024-03-23T05:13:12;11.60;52.80
27114;DHT22;14648;49.730;8.614;2024-03-23T05:15:37;11.50;53.00
27114;DHT22;14648;49.730;8.614;2024-03-23T05:18:04;11.40;52.90
27114;DHT22;14648;49.730;8.614;2024-03-23T05:20:31;11.40;52.80
27114;DHT22;14648;49.730;8.614;2024-03-23T05:22:57;11.20;52.80
27114;DHT22;14648;49.730;8.614;2024-03-23T05:25:23;11.10;52.90
27114;DHT22;14648;49.730;8.614;2024-03-23T05:27:49;11.00;52.90
27114;DHT22;14648;49.730;8.614;2024-03-23T05:30:15;10.90;53.00
27114;DHT22;14648;49.730;8.614;2024-03-23T05:32:41;10.80;52.90
27114;DHT22;14648;49.730;8.614;2024-03-23T05:35:10;10.80;52.90
27114;DHT22;14648;49.730;8.614;2024-03-23T05:37:37;10.70;53.00
27114;DHT22;14648;49.730;8.614;2024-03-23T05:40:03;10.70;53.00
27114;DHT22;14648;49.730;8.614;2024-03-23T05:42:29;10.60;52.90
27114;DHT22;14648;49.730;8.614;2024-03-23T05:44:55;10.60;53.00
27114;DHT22;14648;49.730;8.614;2024-03-23T05:47:21;10.50;53.00
27114;DHT22;14648;49.730;8.614;2024-03-23T05:49:46;10.50;53.00
27114;DHT22;14648;49.730;8.614;2024-03-23T05:52:13;10.40;52.90
27114;DHT22;14648;49.730;8.614;2024-03-23T05:54:39;10.30;52.90
27114;DHT22;14648;49.730;8.614;2024-03-23T05:57:05;10.30;52.90
27114;DHT22;14648;49.730;8.614;2024-03-23T05:59:33;10.20;52.80
27114;DHT22;14648;49.730;8.614;2024-03-23T06:02:00;10.10;52.90
27114;DHT22;14648;49.730;8.614;2024-03-23T06:04:29;10.00;52.80
27114;DHT22;14648;49.730;8.614;2024-03-23T06:07:03;10.00;52.90
27114;DHT22;14648;49.730;8.614;2024-03-23T06:09:42;9.90;52.90
27114;DHT22;14648;49.730;8.614;2024-03-23T06:12:42;9.80;53.00
27114;DHT22;14648;49.730;8.614;2024-03-23T06:15:33;9.70;53.00
27114;DHT22;14648;49.730;8.614;2024-03-23T06:21:04;9.70;52.90
27114;DHT22;14648;49.730;8.614;2024-03-23T06:23:32;9.70;53.00
27114;DHT22;14648;49.730;8.614;2024-03-23T06:26:06;9.70;53.00
27114;DHT22;14648;49.730;8.614;2024-03-23T06:31:10;9.60;52.90
27114;DHT22;14648;49.730;8.614;2024-03-23T06:34:12;9.70;53.00
27114;DHT22;14648;49.730;8.614;2024-03-23T06:39:13;9.60;52.90
27114;DHT22;14648;49.730;8.614;2024-03-23T06:41:54;9.60;52.90
27114;DHT22;14648;49.730;8.614;2024-03-23T06:44:20;9.60;52.90
27114;DHT22;14648;49.730;8.614;2024-03-23T06:46:46;9.60;52.80
27114;DHT22;14648;49.730;8.614;2024-03-23T06:49:14;9.60;52.80
27114;DHT22;14648;49.730;8.614;2024-03-23T06:51:41;9.60;52.80
27114;DHT22;14648;49.730;8.614;2024-03-23T06:54:07;9.60;52.80
27114;DHT22;14648;49.730;8.614;2024-03-23T06:56:33;9.60;52.70
27114;DHT22;14648;49.730;8.614;2024-03-23T06:58:59;9.60;52.70
27114;DHT22;14648;49.730;8.614;2024-03-23T07:01:25;9.60;52.90
27114;DHT22;14648;49.730;8.614;2024-03-23T07:03:54;9.60;52.90
27114;DHT22;14648;49.730;8.614;2024-03-23T07:06:23;9.50;52.80
27114;DHT22;14648;49.730;8.614;2024-03-23T07:08:49;9.60;52.80
27114;DHT22;14648;49.730;8.614;2024-03-23T07:11:24;9.50;52.80
27114;DHT22;14648;49.730;8.614;2024-03-23T07:13:53;9.60;52.80
27114;DHT22;14648;49.730;8.614;2024-03-23T07:16:20;9.60;52.70
27114;DHT22;14648;49.730;8.614;2024-03-23T07:18:46;9.60;52.70
27114;DHT22;14648;49.730;8.614;2024-03-23T07:21:12;9.50;52.60
27114;DHT22;14648;49.730;8.614;2024-03-23T07:23:42;9.50;52.70
27114;DHT22;14648;49.730;8.614;2024-03-23T07:26:11;9.50;52.80
27114;DHT22;14648;49.730;8.614;2024-03-23T07:28:37;9.50;52.90
27114;DHT22;14648;49.730;8.614;2024-03-23T07:31:05;9.40;52.80
27114;DHT22;14648;49.730;8.614;2024-03-23T07:33:35;9.40;52.70
27114;DHT22;14648;49.730;8.614;2024-03-23T07:36:02;9.40;52.70
27114;DHT22;14648;49.730;8.614;2024-03-23T07:38:29;9.40;52.80
27114;DHT22;14648;49.730;8.614;2024-03-23T07:41:17;9.50;52.80
27114;DHT22;14648;49.730;8.614;2024-03-23T07:43:44;9.50;52.80
27114;DHT22;14648;49.730;8.614;2024-03-23T07:46:11;9.40;52.60
27114;DHT22;14648;49.730;8.614;2024-03-23T07:48:38;9.40;53.20
27114;DHT22;14648;49.730;8.614;2024-03-23T07:51:25;9.30;52.60
27114;DHT22;14648;49.730;8.614;2024-03-23T07:53:52;9.30;52.60
27114;DHT22;14648;49.730;8.614;2024-03-23T07:56:19;9.30;52.70
27114;DHT22;14648;49.730;8.614;2024-03-23T07:58:47;9.30;52.70
27114;DHT22;14648;49.730;8.614;2024-03-23T08:01:16;9.30;52.60
27114;DHT22;14648;49.730;8.614;2024-03-23T08:03:46;9.30;52.60
27114;DHT22;14648;49.730;8.614;2024-03-23T08:06:17;9.30;52.60
27114;DHT22;14648;49.730;8.614;2024-03-23T08:08:46;9.40;52.50
27114;DHT22;14648;49.730;8.614;2024-03-23T08:11:13;9.50;52.60
27114;DHT22;14648;49.730;8.614;2024-03-23T08:13:41;9.50;53.20
27114;DHT22;14648;49.730;8.614;2024-03-23T08:16:08;9.60;52.60
27114;DHT22;14648;49.730;8.614;2024-03-23T08:57:24;10.50;52.10
27114;DHT22;14648;49.730;8.614;2024-03-23T09:00:06;10.60;52.10
27114;DHT22;14648;49.730;8.614;2024-03-23T09:02:34;10.70;52.20
27114;DHT22;14648;49.730;8.614;2024-03-23T09:05:00;10.70;52.10
27114;DHT22;14648;49.730;8.614;2024-03-23T09:07:31;10.80;52.20
27114;DHT22;14648;49.730;8.614;2024-03-23T09:09:57;10.80;52.30
27114;DHT22;14648;49.730;8.614;2024-03-23T09:12:23;10.90;52.30
27114;DHT22;14648;49.730;8.614;2024-03-23T09:14:50;11.00;52.30
27114;DHT22;14648;49.730;8.614;2024-03-23T09:17:16;11.20;52.40
27114;DHT22;14648;49.730;8.614;2024-03-23T09:19:43;11.30;52.30
27114;DHT22;14648;49.730;8.614;2024-03-23T09:22:09;11.30;52.30
27114;DHT22;14648;49.730;8.614;2024-03-23T09:24:35;11.40;52.30
27114;DHT22;14648;49.730;8.614;2024-03-23T10:08:37;12.10;50.90
27114;DHT22;14648;49.730;8.614;2024-03-23T10:14:49;12.00;50.50
27114;DHT22;14648;49.730;8.614;2024-03-23T10:17:22;12.00;50.40
27114;DHT22;14648;49.730;8.614;2024-03-23T10:19:50;12.00;50.40
27114;DHT22;14648;49.730;8.614;2024-03-23T10:22:50;11.90;50.30
27114;DHT22;14648;49.730;8.614;2024-03-23T10:26:23;12.00;50.20
27114;DHT22;14648;49.730;8.614;2024-03-23T10:28:59;12.10;50.10
27114;DHT22;14648;49.730;8.614;2024-03-23T10:31:33;12.30;49.90
27114;DHT22;14648;49.730;8.614;2024-03-23T10:34:03;12.40;49.40
27114;DHT22;14648;49.730;8.614;2024-03-23T10:36:29;12.30;49.30
27114;DHT22;14648;49.730;8.614;2024-03-23T11:03:48;12.20;48.10
27114;DHT22;14648;49.730;8.614;2024-03-23T11:06:36;11.90;47.90
27114;DHT22;14648;49.730;8.614;2024-03-23T11:09:03;11.70;47.80
27114;DHT22;14648;49.730;8.614;2024-03-23T11:11:29;11.50;47.70
27114;DHT22;14648;49.730;8.614;2024-03-23T11:13:59;11.20;47.70
27114;DHT22;14648;49.730;8.614;2024-03-23T11:16:29;10.90;47.90
27114;DHT22;14648;49.730;8.614;2024-03-23T11:19:34;10.60;47.80
27114;DHT22;14648;49.730;8.614;2024-03-23T11:22:02;10.20;47.90
27114;DHT22;14648;49.730;8.614;2024-03-23T11:24:28;9.90;48.00
27114;DHT22;14648;49.730;8.614;2024-03-23T11:26:54;9.80;48.20
27114;DHT22;14648;49.730;8.614;2024-03-23T11:29:20;9.70;48.30
27114;DHT22;14648;49.730;8.614;2024-03-23T11:31:50;9.80;48.40
27114;DHT22;14648;49.730;8.614;2024-03-23T11:34:17;9.80;48.40
27114;DHT22;14648;49.730;8.614;2024-03-23T11:36:44;9.80;48.60
27114;DHT22;14648;49.730;8.614;2024-03-23T11:39:14;10.10;48.80
27114;DHT22;14648;49.730;8.614;2024-03-23T11:41:46;10.40;48.50
27114;DHT22;14648;49.730;8.614;2024-03-23T11:46:46;10.60;48.20
27114;DHT22;14648;49.730;8.614;2024-03-23T11:49:24;10.60;48.40
27114;DHT22;14648;49.730;8.614;2024-03-23T11:51:55;10.70;48.50
27114;DHT22;14648;49.730;8.614;2024-03-23T11:54:23;10.80;48.60
27114;DHT22;14648;49.730;8.614;2024-03-23T11:56:59;10.80;48.70
27114;DHT22;14648;49.730;8.614;2024-03-23T11:59:34;10.90;49.00
27114;DHT22;14648;49.730;8.614;2024-03-23T12:02:05;11.00;49.00
27114;DHT22;14648;49.730;8.614;2024-03-23T12:04:36;11.10;49.20
27114;DHT22;14648;49.730;8.614;2024-03-23T12:07:29;11.10;49.30
27114;DHT22;14648;49.730;8.614;2024-03-23T12:10:05;11.10;49.40
27114;DHT22;14648;49.730;8.614;2024-03-23T12:12:31;11.10;49.50
27114;DHT22;14648;49.730;8.614;2024-03-23T12:15:05;11.20;49.50
27114;DHT22;14648;49.730;8.614;2024-03-23T12:17:32;11.20;49.50
27114;DHT22;14648;49.730;8.614;2024-03-23T12:19:58;11.30;49.50
27114;DHT22;14648;49.730;8.614;2024-03-23T12:22:24;11.30;49.60
27114;DHT22;14648;49.730;8.614;2024-03-23T12:24:50;11.30;49.60
27114;DHT22;14648;49.730;8.614;2024-03-23T12:27:16;11.40;49.50
27114;DHT22;14648;49.730;8.614;2024-03-23T12:29:42;11.50;49.50
27114;DHT22;14648;49.730;8.614;2024-03-23T12:32:15;11.40;49.30
27114;DHT22;14648;49.730;8.614;2024-03-23T12:34:42;11.40;49.30
27114;DHT22;14648;49.730;8.614;2024-03-23T12:37:08;11.30;49.40
27114;DHT22;14648;49.730;8.614;2024-03-23T12:39:38;11.30;49.50
27114;DHT22;14648;49.730;8.614;2024-03-23T12:42:04;11.10;49.40
27114;DHT22;14648;49.730;8.614;2024-03-23T12:44:30;11.10;49.30
27114;DHT22;14648;49.730;8.614;2024-03-23T12:46:55;11.00;49.20
27114;DHT22;14648;49.730;8.614;2024-03-23T12:49:21;10.90;49.00
27114;DHT22;14648;49.730;8.614;2024-03-23T12:51:55;10.80;48.90
27114;DHT22;14648;49.730;8.614;2024-03-23T12:54:22;10.60;48.90
27114;DHT22;14648;49.730;8.614;2024-03-23T12:56:48;10.40;48.90
27114;DHT22;14648;49.730;8.614;2024-03-23T12:59:14;10.30;49.30
27114;DHT22;14648;49.730;8.614;2024-03-23T13:01:41;10.30;49.10
27114;DHT22;14648;49.730;8.614;2024-03-23T13:04:08;10.20;49.00
27114;DHT22;14648;49.730;8.614;2024-03-23T13:06:35;10.20;49.20
27114;DHT22;14648;49.730;8.614;2024-03-23T13:09:04;10.20;49.20
27114;DHT22;14648;49.730;8.614;2024-03-23T13:11:30;10.20;49.10
27114;DHT22;14648;49.730;8.614;2024-03-23T13:13:56;10.20;49.00
27114;DHT22;14648;49.730;8.614;2024-03-23T13:16:22;10.10;49.00
27114;DHT22;14648;49.730;8.614;2024-03-23T13:18:48;10.10;49.00
27114;DHT22;14648;49.730;8.614;2024-03-23T13:21:13;10.20;48.90
27114;DHT22;14648;49.730;8.614;2024-03-23T13:23:39;10.20;48.70
27114;DHT22;14648;49.730;8.614;2024-03-23T13:26:07;10.30;48.60
27114;DHT22;14648;49.730;8.614;2024-03-23T13:28:33;10.20;48.50
27114;DHT22;14648;49.730;8.614;2024-03-23T13:31:00;10.20;48.60
27114;DHT22;14648;49.730;8.614;2024-03-23T13:33:29;10.20;48.80
27114;DHT22;14648;49.730;8.614;2024-03-23T13:35:57;10.40;49.00
27114;DHT22;14648;49.730;8.614;2024-03-23T13:38:24;10.40;49.00
27114;DHT22;14648;49.730;8.614;2024-03-23T13:40:54;10.50;49.10
27114;DHT22;14648;49.730;8.614;2024-03-23T13:43:22;10.60;49.60
27114;DHT22;14648;49.730;8.614;2024-03-23T13:45:51;10.60;49.20
27114;DHT22;14648;49.730;8.614;2024-03-23T13:48:20;10.70;49.30
27114;DHT22;14648;49.730;8.614;2024-03-23T13:50:46;10.70;49.30
27114;DHT22;14648;49.730;8.614;2024-03-23T13:53:15;10.80;49.30
27114;DHT22;14648;49.730;8.614;2024-03-23T13:55:47;10.90;49.50
27114;DHT22;14648;49.730;8.614;2024-03-23T13:58:16;11.10;49.50
27114;DHT22;14648;49.730;8.614;2024-03-23T14:00:42;11.20;49.40
27114;DHT22;14648;49.730;8.614;2024-03-23T14:03:11;11.20;49.40
27114;DHT22;14648;49.730;8.614;2024-03-23T14:05:37;11.30;49.30
27114;DHT22;14648;49.730;8.614;2024-03-23T14:08:05;11.30;49.40
27114;DHT22;14648;49.730;8.614;2024-03-23T14:10:32;11.40;49.40
27114;DHT22;14648;49.730;8.614;2024-03-23T14:12:58;11.50;49.40
27114;DHT22;14648;49.730;8.614;2024-03-23T14:15:26;11.50;49.20
27114;DHT22;14648;49.730;8.614;2024-03-23T14:17:52;11.50;49.00
27114;DHT22;14648;49.730;8.614;2024-03-23T14:20:20;11.50;49.00
27114;DHT22;14648;49.730;8.614;2024-03-23T14:22:48;11.30;48.90
27114;DHT22;14648;49.730;8.614;2024-03-23T14:25:14;11.30;48.90
27114;DHT22;14648;49.730;8.614;2024-03-23T14:27:40;11.30;48.80
27114;DHT22;14648;49.730;8.614;2024-03-23T14:30:06;11.30;48.80
27114;DHT22;14648;49.730;8.614;2024-03-23T14:32:32;11.20;48.60
27114;DHT22;14648;49.730;8.614;2024-03-23T14:35:03;11.20;48.40
27114;DHT22;14648;49.730;8.614;2024-03-23T14:37:30;11.20;48.40
27114;DHT22;14648;49.730;8.614;2024-03-23T14:39:56;11.20;49.10
27114;DHT22;14648;49.730;8.614;2024-03-23T14:42:22;11.20;48.40
27114;DHT22;14648;49.730;8.614;2024-03-23T14:44:49;11.20;48.40
27114;DHT22;14648;49.730;8.614;2024-03-23T14:47:19;11.20;48.30
27114;DHT22;14648;49.730;8.614;2024-03-23T14:49:45;11.20;48.30
27114;DHT22;14648;49.730;8.614;2024-03-23T14:52:19;11.20;48.20
27114;DHT22;14648;49.730;8.614;2024-03-23T14:54:45;11.20;48.20
27114;DHT22;14648;49.730;8.614;2024-03-23T14:57:12;11.20;48.00
27114;DHT22;14648;49.730;8.614;2024-03-23T14:59:38;11.10;48.00
27114;DHT22;14648;49.730;8.614;2024-03-23T15:02:07;11.00;47.80
27114;DHT22;14648;49.730;8.614;2024-03-23T15:04:33;11.00;47.80
27114;DHT22;14648;49.730;8.614;2024-03-23T15:07:00;10.90;47.80
27114;DHT22;14648;49.730;8.614;2024-03-23T15:09:26;10.80;47.60
27114;DHT22;14648;49.730;8.614;2024-03-23T15:11:52;10.70;47.70
27114;DHT22;14648;49.730;8.614;2024-03-23T15:14:20;10.70;47.80
27114;DHT22;14648;49.730;8.614;2024-03-23T15:16:46;10.60;47.60
27114;DHT22;14648;49.730;8.614;2024-03-23T15:19:14;10.50;47.60
27114;DHT22;14648;49.730;8.614;2024-03-23T15:21:43;10.40;47.50
27114;DHT22;14648;49.730;8.614;2024-03-23T15:24:09;10.30;47.50
27114;DHT22;14648;49.730;8.614;2024-03-23T15:26:38;10.30;47.50
27114;DHT22;14648;49.730;8.614;2024-03-23T15:29:04;10.20;47.40
27114;DHT22;14648;49.730;8.614;2024-03-23T15:31:37;10.10;47.30
27114;DHT22;14648;49.730;8.614;2024-03-23T15:34:06;9.90;47.60
27114;DHT22;14648;49.730;8.614;2024-03-23T15:36:48;9.80;47.90
27114;DHT22;14648;49.730;8.614;2024-03-23T15:39:21;9.80;48.90
27114;DHT22;14648;49.730;8.614;2024-03-23T15:41:48;9.70;48.20
27114;DHT22;14648;49.730;8.614;2024-03-23T15:44:14;9.70;48.40
27114;DHT22;14648;49.730;8.614;2024-03-23T15:46:40;9.60;48.40
27114;DHT22;14648;49.730;8.614;2024-03-23T15:49:06;9.60;48.40
27114;DHT22;14648;49.730;8.614;2024-03-23T15:51:32;9.50;48.40
27114;DHT22;14648;49.730;8.614;2024-03-23T15:54:00;9.50;48.40
27114;DHT22;14648;49.730;8.614;2024-03-23T15:56:26;9.50;48.40
27114;DHT22;14648;49.730;8.614;2024-03-23T15:58:54;9.30;48.30
27114;DHT22;14648;49.730;8.614;2024-03-23T16:01:20;9.30;48.30
27114;DHT22;14648;49.730;8.614;2024-03-23T16:03:46;9.30;48.30
27114;DHT22;14648;49.730;8.614;2024-03-23T16:06:12;9.40;48.30
27114;DHT22;14648;49.730;8.614;2024-03-23T16:08:39;9.50;48.30
27114;DHT22;14648;49.730;8.614;2024-03-23T16:11:06;9.50;48.50
27114;DHT22;14648;49.730;8.614;2024-03-23T16:13:34;9.60;48.30
27114;DHT22;14648;49.730;8.614;2024-03-23T16:16:02;9.70;48.50
27114;DHT22;14648;49.730;8.614;2024-03-23T16:18:36;9.80;48.30
27114;DHT22;14648;49.730;8.614;2024-03-23T16:21:05;9.80;48.30
27114;DHT22;14648;49.730;8.614;2024-03-23T16:23:33;9.70;48.30
27114;DHT22;14648;49.730;8.614;2024-03-23T16:25:59;9.80;48.30
27114;DHT22;14648;49.730;8.614;2024-03-23T16:28:32;9.80;48.30
27114;DHT22;14648;49.730;8.614;2024-03-23T16:31:07;9.80;48.20
27114;DHT22;14648;49.730;8.614;2024-03-23T16:33:34;9.80;48.20
27114;DHT22;14648;49.730;8.614;2024-03-23T16:36:03;9.80;48.20
27114;DHT22;14648;49.730;8.614;2024-03-23T16:38:34;9.80;48.20
27114;DHT22;14648;49.730;8.614;2024-03-23T16:41:05;9.80;48.20
27114;DHT22;14648;49.730;8.614;2024-03-23T16:43:33;9.80;48.10
27114;DHT22;14648;49.730;8.614;2024-03-23T16:46:05;9.70;48.20
27114;DHT22;14648;49.730;8.614;2024-03-23T16:48:34;9.70;48.10
27114;DHT22;14648;49.730;8.614;2024-03-23T16:51:02;9.60;48.10
27114;DHT22;14648;49.730;8.614;2024-03-23T16:53:31;9.50;48.20
27114;DHT22;14648;49.730;8.614;2024-03-23T16:55:59;9.40;48.20
27114;DHT22;14648;49.730;8.614;2024-03-23T16:58:27;9.40;48.30
27114;DHT22;14648;49.730;8.614;2024-03-23T17:00:55;9.30;48.40
27114;DHT22;14648;49.730;8.614;2024-03-23T17:03:26;9.20;48.40
27114;DHT22;14648;49.730;8.614;2024-03-23T17:05:52;9.20;48.40
27114;DHT22;14648;49.730;8.614;2024-03-23T17:08:19;9.10;48.50
27114;DHT22;14648;49.730;8.614;2024-03-23T17:10:45;9.00;48.40
27114;DHT22;14648;49.730;8.614;2024-03-23T17:13:12;8.90;48.50
27114;DHT22;14648;49.730;8.614;2024-03-23T17:18:09;8.80;48.50
27114;DHT22;14648;49.730;8.614;2024-03-23T17:20:35;8.70;48.60
27114;DHT22;14648;49.730;8.614;2024-03-23T17:23:01;8.70;48.50
27114;DHT22;14648;49.730;8.614;2024-03-23T17:25:27;8.60;48.50
27114;DHT22;14648;49.730;8.614;2024-03-23T17:27:53;8.60;48.60
27114;DHT22;14648;49.730;8.614;2024-03-23T17:30:19;8.50;48.80
27114;DHT22;14648;49.730;8.614;2024-03-23T17:32:46;8.50;48.90
27114;DHT22;14648;49.730;8.614;2024-03-23T17:35:12;8.40;48.80
27114;DHT22;14648;49.730;8.614;2024-03-23T17:37:39;8.40;48.90
27114;DHT22;14648;49.730;8.614;2024-03-23T17:40:07;8.40;48.90
27114;DHT22;14648;49.730;8.614;2024-03-23T17:42:37;8.40;48.90
27114;DHT22;14648;49.730;8.614;2024-03-23T17:45:05;8.30;48.90
27114;DHT22;14648;49.730;8.614;2024-03-23T17:47:40;8.30;49.00
27114;DHT22;14648;49.730;8.614;2024-03-23T17:50:07;8.30;49.00
27114;DHT22;14648;49.730;8.614;2024-03-23T17:52:34;8.30;49.00
27114;DHT22;14648;49.730;8.614;2024-03-23T17:55:00;8.30;49.10
27114;DHT22;14648;49.730;8.614;2024-03-23T17:57:26;8.20;49.10
27114;DHT22;14648;49.730;8.614;2024-03-23T17:59:53;8.20;49.00
27114;DHT22;14648;49.730;8.614;2024-03-23T18:02:19;8.20;49.00
27114;DHT22;14648;49.730;8.614;2024-03-23T18:04:46;8.10;49.10
27114;DHT22;14648;49.730;8.614;2024-03-23T18:07:13;8.10;49.10
27114;DHT22;14648;49.730;8.614;2024-03-23T18:09:39;8.10;49.10
27114;DHT22;14648;49.730;8.614;2024-03-23T18:12:06;8.10;49.10
27114;DHT22;14648;49.730;8.614;2024-03-23T18:14:32;8.10;49.00
27114;DHT22;14648;49.730;8.614;2024-03-23T18:16:57;8.00;48.90
27114;DHT22;14648;49.730;8.614;2024-03-23T18:19:23;8.00;48.90
27114;DHT22;14648;49.730;8.614;2024-03-23T18:21:49;8.00;48.80
27114;DHT22;14648;49.730;8.614;2024-03-23T18:24:15;8.00;48.80
27114;DHT22;14648;49.730;8.614;2024-03-23T18:26:42;7.90;48.80
27114;DHT22;14648;49.730;8.614;2024-03-23T18:29:08;7.90;48.80
27114;DHT22;14648;49.730;8.614;2024-03-23T18:31:36;7.90;48.90
27114;DHT22;14648;49.730;8.614;2024-03-23T18:34:13;7.90;49.00
27114;DHT22;14648;49.730;8.614;2024-03-23T18:36:39;7.80;48.90
27114;DHT22;14648;49.730;8.614;2024-03-23T18:39:05;7.70;49.00
27114;DHT22;14648;49.730;8.614;2024-03-23T18:41:31;7.70;49.00
27114;DHT22;14648;49.730;8.614;2024-03-23T18:43:57;7.60;48.90
27114;DHT22;14648;49.730;8.614;2024-03-23T18:46:24;7.50;49.00
27114;DHT22;14648;49.730;8.614;2024-03-23T18:48:50;7.50;49.00
27114;DHT22;14648;49.730;8.614;2024-03-23T18:51:16;7.50;49.10
27114;DHT22;14648;49.730;8.614;2024-03-23T18:53:41;7.50;49.10
27114;DHT22;14648;49.730;8.614;2024-03-23T18:56:07;7.40;49.10
27114;DHT22;14648;49.730;8.614;2024-03-23T18:58:33;7.40;49.10
27114;DHT22;14648;49.730;8.614;2024-03-23T19:01:02;7.30;49.10
27114;DHT22;14648;49.730;8.614;2024-03-23T19:03:29;7.30;49.10
27114;DHT22;14648;49.730;8.614;2024-03-23T19:05:56;7.30;49.10
27114;DHT22;14648;49.730;8.614;2024-03-23T19:08:23;7.30;49.10
27114;DHT22;14648;49.730;8.614;2024-03-23T19:11:00;7.20;49.00
27114;DHT22;14648;49.730;8.614;2024-03-23T19:13:28;7.20;49.10
27114;DHT22;14648;49.730;8.614;2024-03-23T19:15:55;7.10;49.10
27114;DHT22;14648;49.730;8.614;2024-03-23T19:18:24;7.10;49.20
27114;DHT22;14648;49.730;8.614;2024-03-23T19:20:57;7.00;49.10
27114;DHT22;14648;49.730;8.614;2024-03-23T19:23:24;7.00;49.20
27114;DHT22;14648;49.730;8.614;2024-03-23T19:28:26;7.00;49.20
27114;DHT22;14648;49.730;8.614;2024-03-23T19:30:53;7.00;49.20
27114;DHT22;14648;49.730;8.614;2024-03-23T19:33:21;7.00;49.30
27114;DHT22;14648;49.730;8.614;2024-03-23T19:35:53;6.90;49.30
27114;DHT22;14648;49.730;8.614;2024-03-23T19:38:20;7.00;49.40
27114;DHT22;14648;49.730;8.614;2024-03-23T19:40:53;7.00;49.40
27114;DHT22;14648;49.730;8.614;2024-03-23T19:43:19;7.00;49.40
27114;DHT22;14648;49.730;8.614;2024-03-23T19:45:45;7.10;49.50
27114;DHT22;14648;49.730;8.614;2024-03-23T19:48:11;7.10;49.50
27114;DHT22;14648;49.730;8.614;2024-03-23T19:50:36;7.10;49.40
27114;DHT22;14648;49.730;8.614;2024-03-23T19:53:02;7.10;49.40
27114;DHT22;14648;49.730;8.614;2024-03-23T19:55:30;7.10;49.50
27114;DHT22;14648;49.730;8.614;2024-03-23T19:57:57;7.10;49.60
27114;DHT22;14648;49.730;8.614;2024-03-23T20:00:26;7.10;49.60
27114;DHT22;14648;49.730;8.614;2024-03-23T20:02:52;7.10;49.70
27114;DHT22;14648;49.730;8.614;2024-03-23T20:05:18;7.20;49.70
27114;DHT22;14648;49.730;8.614;2024-03-23T20:07:43;7.20;49.70
27114;DHT22;14648;49.730;8.614;2024-03-23T20:10:09;7.20;49.70
27114;DHT22;14648;49.730;8.614;2024-03-23T20:12:38;7.20;49.70
27114;DHT22;14648;49.730;8.614;2024-03-23T20:15:05;7.20;49.70
27114;DHT22;14648;49.730;8.614;2024-03-23T20:17:32;7.20;49.80
27114;DHT22;14648;49.730;8.614;2024-03-23T20:19:58;7.20;49.80
27114;DHT22;14648;49.730;8.614;2024-03-23T20:22:24;7.10;49.90
27114;DHT22;14648;49.730;8.614;2024-03-23T20:24:50;7.20;49.80
27114;DHT22;14648;49.730;8.614;2024-03-23T20:27:18;7.20;49.80
27114;DHT22;14648;49.730;8.614;2024-03-23T20:29:43;7.20;49.80
27114;DHT22;14648;49.730;8.614;2024-03-23T20:32:09;7.20;49.90
27114;DHT22;14648;49.730;8.614;2024-03-23T20:34:35;7.20;50.00
27114;DHT22;14648;49.730;8.614;2024-03-23T20:37:01;7.20;50.00
27114;DHT22;14648;49.730;8.614;2024-03-23T20:39:26;7.10;50.00
27114;DHT22;14648;49.730;8.614;2024-03-23T20:41:52;7.10;50.00
27114;DHT22;14648;49.730;8.614;2024-03-23T20:44:18;7.10;50.00
27114;DHT22;14648;49.730;8.614;2024-03-23T20:46:44;7.10;50.00
27114;DHT22;14648;49.730;8.614;2024-03-23T20:49:09;7.10;50.10
27114;DHT22;14648;49.730;8.614;2024-03-23T20:51:35;7.10;50.10
27114;DHT22;14648;49.730;8.614;2024-03-23T20:54:01;7.10;50.10
27114;DHT22;14648;49.730;8.614;2024-03-23T20:56:27;7.00;50.00